createdAt,value
2023-01-28T00:00:31.084Z,3.28
2023-01-28T00:03:02.257Z,3.95
2023-01-28T00:05:33.788Z,3.95
2023-01-28T00:08:05.713Z,3.88
2023-01-28T00:10:40.633Z,3.55
2023-01-28T00:13:13.834Z,3.35
2023-01-28T00:15:46.753Z,4.15
2023-01-28T00:18:17.515Z,4.05
2023-01-28T00:21:01.267Z,4.28
2023-01-28T00:23:37.337Z,3.03
2023-01-28T00:26:20.878Z,2.45
2023-01-28T00:28:55.763Z,3.28
2023-01-28T00:31:30.189Z,2.95
2023-01-28T00:34:01.395Z,3.50
2023-01-28T00:36:33.929Z,3.15
2023-01-28T00:39:07.073Z,3.88
2023-01-28T00:41:39.888Z,3.30
2023-01-28T00:44:14.068Z,4.18
2023-01-28T00:46:45.774Z,2.80
2023-01-28T00:49:20.649Z,2.30
2023-01-28T00:51:55.478Z,4.07
2023-01-28T00:54:27.169Z,3.00
2023-01-28T00:57:02.458Z,2.67
2023-01-28T00:59:39.196Z,3.50
2023-01-28T01:02:19.622Z,3.30
2023-01-28T01:05:00.413Z,3.63
2023-01-28T01:07:43.277Z,2.65
2023-01-28T01:10:17.458Z,3.22
2023-01-28T01:12:53.683Z,3.10
2023-01-28T01:15:24.278Z,3.45
2023-01-28T01:17:55.373Z,3.38
2023-01-28T01:20:28.479Z,3.72
2023-01-28T01:22:59.271Z,3.88
2023-01-28T01:25:30.517Z,3.95
2023-01-28T01:28:04.195Z,3.85
2023-01-28T01:30:36.717Z,3.10
2023-01-28T01:33:11.770Z,3.08
2023-01-28T01:35:46.365Z,3.20
2023-01-28T01:38:16.652Z,2.70
2023-01-28T01:40:47.666Z,3.70
2023-01-28T01:43:27.049Z,3.15
2023-01-28T01:46:03.773Z,3.10
2023-01-28T01:48:49.606Z,3.38
2023-01-28T01:51:27.970Z,3.53
2023-01-28T01:54:02.510Z,4.80
2023-01-28T01:56:41.471Z,3.97
2023-01-28T01:59:36.895Z,3.00
2023-01-28T02:02:12.460Z,2.80
2023-01-28T02:04:47.228Z,3.47
2023-01-28T02:07:22.557Z,2.53
2023-01-28T02:09:53.774Z,3.55
2023-01-28T02:12:29.953Z,3.20
2023-01-28T02:15:09.533Z,2.60
2023-01-28T02:17:42.104Z,2.50
2023-01-28T02:20:15.140Z,2.33
2023-01-28T02:23:20.067Z,2.55
2023-01-28T02:26:20.440Z,2.28
2023-01-28T02:29:04.245Z,2.40
2023-01-28T02:31:43.716Z,3.15
2023-01-28T02:34:23.148Z,2.40
2023-01-28T02:36:58.812Z,2.08
2023-01-28T02:39:39.588Z,2.33
2023-01-28T02:42:18.372Z,2.85
2023-01-28T02:44:51.428Z,1.90
2023-01-28T02:47:39.063Z,3.03
2023-01-28T02:50:16.128Z,3.10
2023-01-28T02:53:19.220Z,2.83
2023-01-28T02:56:04.943Z,2.83
2023-01-28T02:58:42.146Z,2.17
2023-01-28T03:01:30.843Z,3.05
2023-01-28T03:04:06.385Z,2.25
2023-01-28T03:06:44.728Z,1.90
2023-01-28T03:09:25.881Z,3.20
2023-01-28T03:12:16.977Z,2.45
2023-01-28T03:15:11.091Z,4.15
2023-01-28T03:18:06.667Z,7.85
2023-01-28T03:21:01.401Z,2.53
2023-01-28T03:23:57.406Z,3.20
2023-01-28T03:26:51.430Z,3.00
2023-01-28T03:29:42.576Z,3.10
2023-01-28T03:32:33.614Z,3.50
2023-01-28T03:35:26.380Z,2.08
2023-01-28T03:38:02.301Z,1.88
2023-01-28T03:40:32.499Z,2.70
2023-01-28T03:43:06.408Z,2.20
2023-01-28T03:45:40.067Z,3.50
2023-01-28T03:48:11.588Z,3.90
2023-01-28T03:50:45.259Z,1.98
2023-01-28T03:53:17.475Z,5.15
2023-01-28T03:55:52.283Z,10.38
2023-01-28T03:58:27.474Z,2.58
2023-01-28T04:00:59.429Z,2.83
2023-01-28T04:03:31.596Z,2.40
2023-01-28T04:06:10.772Z,2.40
2023-01-28T04:09:15.404Z,2.25
2023-01-28T04:11:58.633Z,3.17
2023-01-28T04:14:36.184Z,2.65
2023-01-28T04:17:28.214Z,2.38
2023-01-28T04:20:04.885Z,2.30
2023-01-28T04:22:40.120Z,1.85
2023-01-28T04:25:18.092Z,3.13
2023-01-28T04:27:51.172Z,2.72
2023-01-28T04:30:26.163Z,2.30
2023-01-28T04:33:09.067Z,4.95
2023-01-28T04:36:00.071Z,4.60
2023-01-28T04:38:51.192Z,2.20
2023-01-28T04:41:43.007Z,3.15
2023-01-28T04:44:48.021Z,2.95
2023-01-28T04:47:44.057Z,2.83
2023-01-28T04:50:34.075Z,2.85
2023-01-28T04:53:23.624Z,2.58
2023-01-28T04:56:14.582Z,2.13
2023-01-28T04:58:46.022Z,2.22
2023-01-28T05:01:23.348Z,2.55
2023-01-28T05:04:10.220Z,2.95
2023-01-28T05:06:44.214Z,2.65
2023-01-28T05:09:26.599Z,2.00
2023-01-28T05:12:03.006Z,2.50
2023-01-28T05:14:36.201Z,2.70
2023-01-28T05:17:14.640Z,2.97
2023-01-28T05:19:46.922Z,2.33
2023-01-28T05:22:25.391Z,1.88
2023-01-28T05:25:14.725Z,3.08
2023-01-28T05:27:52.286Z,2.80
2023-01-28T05:30:28.493Z,3.75
2023-01-28T05:33:01.931Z,5.00
2023-01-28T05:35:32.773Z,5.13
2023-01-28T05:38:05.629Z,5.30
2023-01-28T05:40:36.808Z,5.70
2023-01-28T05:43:12.043Z,5.50
2023-01-28T05:45:49.112Z,4.72
2023-01-28T05:48:25.695Z,5.43
2023-01-28T05:51:23.967Z,5.25
2023-01-28T05:53:59.213Z,4.85
2023-01-28T05:56:31.249Z,4.85
2023-01-28T05:59:04.138Z,4.55
2023-01-28T06:01:37.491Z,4.68
2023-01-28T06:04:09.457Z,5.22
2023-01-28T06:06:39.622Z,5.30
2023-01-28T06:09:13.813Z,4.95
2023-01-28T06:11:46.407Z,4.40
2023-01-28T06:14:20.423Z,5.22
2023-01-28T06:17:09.693Z,4.78
2023-01-28T06:19:59.440Z,4.40
2023-01-28T06:22:31.357Z,4.30
2023-01-28T06:25:02.396Z,4.72
2023-01-28T06:27:35.267Z,3.42
2023-01-28T06:30:09.406Z,3.65
2023-01-28T06:32:40.920Z,3.90
2023-01-28T06:35:12.535Z,3.80
2023-01-28T06:37:45.806Z,3.97
2023-01-28T06:40:16.466Z,4.35
2023-01-28T06:42:47.666Z,3.83
2023-01-28T06:45:25.954Z,4.10
2023-01-28T06:47:58.013Z,3.63
2023-01-28T06:50:30.459Z,3.25
2023-01-28T06:53:06.878Z,4.75
2023-01-28T06:55:37.150Z,4.20
2023-01-28T06:58:08.107Z,3.53
2023-01-28T07:00:44.783Z,4.50
2023-01-28T07:03:16.398Z,3.60
2023-01-28T07:05:46.541Z,3.83
2023-01-28T07:08:18.312Z,4.22
2023-01-28T07:10:49.635Z,2.65
2023-01-28T07:13:20.193Z,2.15
2023-01-28T07:15:53.826Z,2.70
2023-01-28T07:18:24.554Z,2.33
2023-01-28T07:20:56.145Z,2.53
2023-01-28T07:23:29.015Z,3.08
2023-01-28T07:26:04.144Z,4.28
2023-01-28T07:28:34.603Z,9.88
2023-01-28T07:31:08.692Z,3.47
2023-01-28T07:33:42.802Z,2.70
2023-01-28T07:36:13.706Z,9.18
2023-01-28T07:38:49.837Z,4.82
2023-01-28T07:41:27.293Z,3.78
2023-01-28T07:44:01.277Z,2.20
2023-01-28T07:46:35.307Z,4.45
2023-01-28T07:49:07.688Z,2.85
2023-01-28T07:51:39.288Z,6.47
2023-01-28T07:54:10.791Z,1.92
2023-01-28T07:56:42.653Z,4.40
2023-01-28T07:59:13.228Z,2.20
2023-01-28T08:01:48.941Z,2.78
2023-01-28T08:04:20.904Z,8.40
2023-01-28T08:06:53.224Z,1.90
2023-01-28T08:09:23.326Z,3.38
2023-01-28T08:11:56.167Z,2.00
2023-01-28T08:14:27.040Z,1.90
2023-01-28T08:17:00.446Z,2.55
2023-01-28T08:19:31.067Z,4.03
2023-01-28T08:22:04.640Z,1.65
2023-01-28T08:24:39.158Z,6.35
2023-01-28T08:27:12.078Z,2.20
2023-01-28T08:29:43.931Z,2.67
2023-01-28T08:32:15.673Z,2.00
2023-01-28T08:34:46.794Z,2.55
2023-01-28T08:37:17.404Z,2.60
2023-01-28T08:39:48.432Z,1.90
2023-01-28T08:42:19.659Z,1.85
2023-01-28T08:44:50.256Z,2.00
2023-01-28T08:47:24.981Z,1.50
2023-01-28T08:49:55.783Z,2.42
2023-01-28T08:52:27.277Z,2.40
2023-01-28T08:54:57.414Z,1.90
2023-01-28T08:57:27.965Z,1.60
2023-01-28T08:59:58.489Z,1.80
2023-01-28T09:02:33.162Z,11.52
2023-01-28T09:05:03.560Z,2.63
2023-01-28T09:07:34.287Z,1.25
2023-01-28T09:10:04.968Z,1.38
2023-01-28T09:12:35.651Z,1.15
2023-01-28T09:15:10.908Z,1.38
2023-01-28T09:17:43.666Z,1.45
2023-01-28T09:20:15.107Z,1.30
2023-01-28T09:22:46.535Z,1.73
2023-01-28T09:25:17.159Z,2.00
2023-01-28T09:27:48.484Z,1.52
2023-01-28T09:30:21.574Z,1.25
2023-01-28T09:32:56.441Z,1.50
2023-01-28T09:35:27.713Z,1.40
2023-01-28T09:38:03.581Z,1.30
2023-01-28T09:40:38.778Z,1.38
2023-01-28T09:43:42.810Z,1.20
2023-01-28T09:46:18.824Z,1.20
2023-01-28T09:48:54.501Z,1.85
2023-01-28T09:51:37.068Z,1.35
2023-01-28T09:54:18.066Z,1.52
2023-01-28T09:56:57.139Z,1.25
2023-01-28T09:59:30.555Z,1.20
2023-01-28T10:02:10.953Z,1.40
2023-01-28T10:04:53.684Z,1.08
2023-01-28T10:07:39.240Z,1.30
2023-01-28T10:10:16.561Z,1.30
2023-01-28T10:13:09.991Z,1.00
2023-01-28T10:16:14.564Z,1.92
2023-01-28T10:18:49.474Z,2.40
2023-01-28T10:21:26.373Z,1.05
2023-01-28T10:24:04.060Z,1.30
2023-01-28T10:26:40.203Z,1.52
2023-01-28T10:29:16.842Z,1.00
2023-01-28T10:31:55.824Z,1.45
2023-01-28T10:34:30.220Z,2.17
2023-01-28T10:37:04.412Z,2.25
2023-01-28T10:39:37.229Z,1.15
2023-01-28T10:42:25.288Z,0.85
2023-01-28T10:44:57.413Z,2.17
2023-01-28T10:47:35.499Z,1.35
2023-01-28T10:50:07.629Z,2.10
2023-01-28T10:52:40.218Z,1.90
2023-01-28T10:55:17.547Z,1.20
2023-01-28T10:57:48.360Z,1.42
2023-01-28T11:00:31.163Z,1.13
2023-01-28T11:03:01.699Z,1.50
2023-01-28T11:05:34.321Z,1.42
2023-01-28T11:08:31.174Z,1.55
2023-01-28T11:11:01.710Z,1.70
2023-01-28T11:13:33.285Z,0.95
2023-01-28T11:16:07.665Z,1.50
2023-01-28T11:18:44.668Z,1.45
2023-01-28T11:21:22.152Z,1.42
2023-01-28T11:23:59.482Z,1.38
2023-01-28T11:26:33.650Z,1.08
2023-01-28T11:29:05.289Z,1.50
2023-01-28T11:31:47.815Z,0.70
2023-01-28T11:34:24.035Z,1.08
2023-01-28T11:36:57.535Z,1.67
2023-01-28T11:39:33.787Z,1.20
2023-01-28T11:42:19.952Z,2.13
2023-01-28T11:44:51.411Z,1.70
2023-01-28T11:47:34.948Z,1.92
2023-01-28T11:50:33.256Z,1.67
2023-01-28T11:53:41.212Z,2.50
2023-01-28T11:56:37.032Z,1.50
2023-01-28T11:59:34.452Z,1.65
2023-01-28T12:02:20.541Z,1.25
2023-01-28T12:05:23.174Z,1.30
2023-01-28T12:08:05.512Z,1.30
2023-01-28T12:10:51.159Z,1.25
2023-01-28T12:13:39.215Z,1.33
2023-01-28T12:16:27.040Z,2.05
2023-01-28T12:19:28.804Z,2.03
2023-01-28T12:22:40.564Z,1.60
2023-01-28T12:25:31.473Z,2.65
2023-01-28T12:28:15.857Z,2.17
2023-01-28T12:31:05.995Z,1.90
2023-01-28T12:33:55.695Z,1.70
2023-01-28T12:36:43.216Z,2.72
2023-01-28T12:39:26.547Z,3.80
2023-01-28T12:42:05.777Z,2.42
2023-01-28T12:44:44.665Z,1.85
2023-01-28T12:47:22.003Z,2.55
2023-01-28T12:49:59.010Z,2.15
2023-01-28T12:52:40.456Z,1.77
2023-01-28T12:55:18.927Z,1.58
2023-01-28T12:57:53.665Z,2.17
2023-01-28T13:00:30.340Z,1.80
2023-01-28T13:03:19.880Z,1.20
2023-01-28T13:05:55.426Z,2.25
2023-01-28T13:08:30.055Z,2.67
2023-01-28T13:11:03.436Z,2.08
2023-01-28T13:13:38.868Z,1.40
2023-01-28T13:19:55.455Z,1.00
2023-01-28T13:22:34.634Z,1.55
2023-01-28T13:25:31.284Z,1.20
2023-01-28T13:28:04.313Z,2.08
2023-01-28T13:30:36.489Z,1.83
2023-01-28T13:33:10.857Z,1.33
2023-01-28T13:35:45.512Z,2.03
2023-01-28T13:38:22.621Z,0.95
2023-01-28T13:41:01.037Z,1.15
2023-01-28T13:43:40.826Z,1.35
2023-01-28T13:46:14.748Z,0.80
2023-01-28T13:48:51.734Z,0.95
2023-01-28T13:51:28.265Z,0.95
2023-01-28T13:54:08.050Z,1.42
2023-01-28T13:56:44.411Z,1.13
2023-01-28T13:59:51.702Z,0.93
2023-01-28T14:02:57.016Z,1.30
2023-01-28T14:05:44.659Z,0.95
2023-01-28T14:08:53.268Z,1.73
2023-01-28T14:12:00.287Z,1.45
2023-01-28T14:14:53.350Z,0.90
2023-01-28T14:17:38.746Z,0.98
2023-01-28T14:20:25.857Z,0.90
2023-01-28T14:23:05.743Z,1.20
2023-01-28T14:25:51.329Z,1.55
2023-01-28T14:28:33.478Z,0.90
2023-01-28T14:31:11.182Z,1.35
2023-01-28T14:33:46.451Z,1.15
2023-01-28T14:36:17.326Z,1.30
2023-01-28T14:38:48.756Z,1.10
2023-01-28T14:41:33.158Z,1.48
2023-01-28T14:44:05.683Z,1.50
2023-01-28T14:46:47.446Z,1.13
2023-01-28T14:49:30.011Z,1.20
2023-01-28T14:52:18.516Z,1.13
2023-01-28T14:55:01.399Z,0.98
2023-01-28T14:57:51.954Z,1.38
2023-01-28T15:00:27.383Z,2.17
2023-01-28T15:02:58.279Z,1.02
2023-01-28T15:05:33.739Z,1.20
2023-01-28T15:08:03.899Z,1.50
2023-01-28T15:10:41.496Z,1.00
2023-01-28T15:13:17.478Z,1.15
2023-01-28T15:15:52.832Z,1.88
2023-01-28T15:18:31.235Z,1.05
2023-01-28T15:21:06.136Z,1.38
2023-01-28T15:23:39.864Z,1.20
2023-01-28T15:26:19.558Z,1.40
2023-01-28T15:28:55.971Z,1.40
2023-01-28T15:31:32.648Z,2.35
2023-01-28T15:34:06.210Z,1.55
2023-01-28T15:36:40.498Z,1.55
2023-01-28T15:39:19.301Z,1.13
2023-01-28T15:41:54.243Z,1.17
2023-01-28T15:44:32.102Z,1.80
2023-01-28T15:47:05.565Z,1.70
2023-01-28T15:49:40.335Z,2.00
2023-01-28T15:52:11.443Z,2.28
2023-01-28T15:54:44.683Z,1.70
2023-01-28T15:57:27.777Z,1.52
2023-01-28T16:00:20.609Z,1.95
2023-01-28T16:02:55.663Z,1.85
2023-01-28T16:05:32.045Z,1.60
2023-01-28T16:08:21.933Z,2.05
2023-01-28T16:10:56.991Z,2.15
2023-01-28T16:13:33.177Z,1.42
2023-01-28T16:16:10.137Z,2.03
2023-01-28T16:18:49.140Z,2.40
2023-01-28T16:21:24.943Z,2.30
2023-01-28T16:24:01.489Z,2.35
2023-01-28T16:26:34.734Z,2.00
2023-01-28T16:29:20.218Z,1.60
2023-01-28T16:31:54.029Z,2.10
2023-01-28T16:34:25.683Z,2.50
2023-01-28T16:36:58.756Z,3.15
2023-01-28T16:39:30.440Z,2.97
2023-01-28T16:42:01.919Z,1.83
2023-01-28T16:44:32.245Z,2.00
2023-01-28T16:47:09.130Z,2.10
2023-01-28T16:49:39.643Z,1.95
2023-01-28T16:52:10.279Z,2.22
2023-01-28T16:54:50.334Z,2.08
2023-01-28T16:57:24.339Z,2.55
2023-01-28T16:59:54.642Z,2.75
2023-01-28T17:02:27.286Z,2.63
2023-01-28T17:04:57.547Z,2.67
2023-01-28T17:07:27.650Z,3.85
2023-01-28T17:09:59.418Z,2.78
2023-01-28T17:12:30.092Z,2.63
2023-01-28T17:15:04.397Z,3.10
2023-01-28T17:17:43.659Z,1.90
2023-01-28T17:20:18.709Z,2.58
2023-01-28T17:22:48.901Z,1.95
2023-01-28T17:25:19.498Z,2.30
2023-01-28T17:27:52.619Z,2.30
2023-01-28T17:30:24.437Z,2.60
2023-01-28T17:32:56.826Z,2.40
2023-01-28T17:35:32.256Z,2.13
2023-01-28T17:38:05.674Z,1.88
2023-01-28T17:40:38.161Z,2.42
2023-01-28T17:43:14.340Z,1.92
2023-01-28T17:45:45.085Z,2.58
2023-01-28T17:48:16.811Z,2.72
2023-01-28T17:50:49.847Z,1.80
2023-01-28T17:53:19.935Z,2.42
2023-01-28T17:55:50.691Z,1.88
2023-01-28T17:58:23.741Z,2.17
2023-01-28T18:00:54.458Z,1.95
2023-01-28T18:03:27.163Z,1.85
2023-01-28T18:06:04.846Z,2.20
2023-01-28T18:08:36.873Z,1.90
2023-01-28T18:11:09.651Z,2.05
2023-01-28T18:13:46.353Z,2.08
2023-01-28T18:16:21.540Z,2.15
2023-01-28T18:18:55.637Z,2.35
2023-01-28T18:21:51.286Z,2.20
2023-01-28T18:24:27.943Z,2.35
2023-01-28T18:27:00.519Z,2.00
2023-01-28T18:29:40.433Z,3.85
2023-01-28T18:32:14.751Z,1.92
2023-01-28T18:34:51.385Z,2.78
2023-01-28T18:37:22.203Z,2.20
2023-01-28T18:39:53.902Z,2.60
2023-01-28T18:42:24.302Z,2.60
2023-01-28T18:44:56.636Z,2.55
2023-01-28T18:47:27.672Z,2.50
2023-01-28T18:50:03.349Z,2.53
2023-01-28T18:52:37.427Z,2.42
2023-01-28T18:55:12.180Z,4.60
2023-01-28T18:57:45.644Z,2.40
2023-01-28T19:00:18.121Z,2.33
2023-01-28T19:02:48.837Z,3.25
2023-01-28T19:05:22.393Z,3.65
2023-01-28T19:07:52.958Z,2.72
2023-01-28T19:10:24.465Z,3.13
2023-01-28T19:12:58.479Z,3.13
2023-01-28T19:15:31.454Z,2.95
2023-01-28T19:18:03.619Z,2.22
2023-01-28T19:20:39.325Z,2.20
2023-01-28T19:23:10.886Z,2.83
2023-01-28T19:25:46.685Z,2.42
2023-01-28T19:28:19.408Z,2.40
2023-01-28T19:30:55.161Z,2.33
2023-01-28T19:33:26.389Z,2.92
2023-01-28T19:36:03.283Z,2.30
2023-01-28T19:38:33.366Z,2.85
2023-01-28T19:41:08.985Z,2.53
2023-01-28T19:43:43.529Z,2.50
2023-01-28T19:46:23.003Z,2.40
2023-01-28T19:48:56.380Z,2.70
2023-01-28T19:51:32.573Z,2.35
2023-01-28T19:54:04.603Z,2.85
2023-01-28T19:56:40.919Z,2.65
2023-01-28T19:59:13.250Z,3.50
2023-01-28T20:01:47.699Z,3.15
2023-01-28T20:04:22.425Z,2.72
2023-01-28T20:06:56.249Z,2.92
2023-01-28T20:09:27.434Z,2.70
2023-01-28T20:11:57.559Z,2.63
2023-01-28T20:14:30.589Z,3.55
2023-01-28T20:17:03.456Z,3.38
2023-01-28T20:19:36.331Z,2.92
2023-01-28T20:22:17.145Z,2.78
2023-01-28T20:24:49.513Z,2.63
2023-01-28T20:27:23.486Z,3.50
2023-01-28T20:29:59.490Z,2.70
2023-01-28T20:32:31.555Z,4.03
2023-01-28T20:35:02.409Z,4.38
2023-01-28T20:37:37.431Z,2.83
2023-01-28T20:40:10.807Z,3.28
2023-01-28T20:42:42.609Z,3.67
2023-01-28T20:45:16.790Z,3.80
2023-01-28T20:47:49.747Z,3.90
2023-01-28T20:50:22.952Z,3.60
2023-01-28T20:52:56.302Z,3.78
2023-01-28T20:55:29.407Z,3.63
2023-01-28T20:58:02.742Z,3.92
2023-01-28T21:00:40.447Z,6.03
2023-01-28T21:03:12.824Z,4.72
2023-01-28T21:05:46.363Z,4.10
2023-01-28T21:08:22.852Z,3.72
2023-01-28T21:10:53.328Z,3.85
2023-01-28T21:13:28.540Z,3.97
2023-01-28T21:16:06.720Z,4.30
2023-01-28T21:18:37.346Z,5.78
2023-01-28T21:21:11.114Z,3.97
2023-01-28T21:23:44.048Z,4.45
2023-01-28T21:26:21.693Z,3.60
2023-01-28T21:28:56.262Z,4.05
2023-01-28T21:31:30.513Z,3.65
2023-01-28T21:34:03.075Z,4.30
2023-01-28T21:36:41.624Z,3.72
2023-01-28T21:39:19.374Z,2.90
2023-01-28T21:41:51.483Z,3.60
2023-01-28T21:44:22.731Z,3.75
2023-01-28T21:46:55.919Z,4.88
2023-01-28T21:49:28.359Z,3.85
2023-01-28T21:51:58.895Z,3.47
2023-01-28T21:54:33.410Z,3.85
2023-01-28T21:57:04.417Z,3.95
2023-01-28T21:59:39.181Z,4.47
2023-01-28T22:02:18.114Z,4.07
2023-01-28T22:04:52.115Z,4.10
2023-01-28T22:07:26.882Z,4.72
2023-01-28T22:10:06.396Z,4.63
2023-01-28T22:12:37.763Z,4.53
2023-01-28T22:15:09.814Z,4.20
2023-01-28T22:17:42.812Z,3.92
2023-01-28T22:20:17.098Z,3.55
2023-01-28T22:22:58.605Z,4.22
2023-01-28T22:25:33.409Z,4.90
2023-01-28T22:28:05.106Z,3.80
2023-01-28T22:30:36.965Z,3.72
2023-01-28T22:33:12.307Z,4.30
2023-01-28T22:35:43.432Z,4.22
2023-01-28T22:38:19.701Z,3.50
2023-01-28T22:40:54.871Z,4.57
2023-01-28T22:43:25.799Z,4.97
2023-01-28T22:46:01.762Z,5.35
2023-01-28T22:48:34.869Z,4.05
2023-01-28T22:51:08.017Z,4.90
2023-01-28T22:53:40.015Z,4.63
2023-01-28T22:56:14.617Z,5.50
2023-01-28T22:58:44.971Z,4.65
2023-01-28T23:01:18.548Z,4.18
2023-01-28T23:03:51.459Z,4.75
2023-01-28T23:06:25.641Z,5.13
2023-01-28T23:08:58.990Z,5.05
2023-01-28T23:11:34.171Z,5.35
2023-01-28T23:14:23.272Z,4.97
2023-01-28T23:17:11.537Z,4.85
2023-01-28T23:20:00.727Z,4.47
2023-01-28T23:22:53.445Z,5.53
2023-01-28T23:25:27.223Z,4.65
2023-01-28T23:28:00.430Z,7.35
2023-01-28T23:30:32.863Z,7.10
2023-01-28T23:33:07.171Z,6.15
2023-01-28T23:35:40.551Z,5.60
2023-01-28T23:38:12.279Z,7.13
2023-01-28T23:40:44.827Z,7.55
2023-01-28T23:43:17.369Z,7.15
2023-01-28T23:45:48.733Z,7.32
2023-01-28T23:48:22.013Z,6.05
2023-01-28T23:50:57.681Z,7.38
2023-01-28T23:53:29.783Z,5.97
2023-01-28T23:56:00.823Z,6.78
2023-01-28T23:58:43.629Z,7.50
